TimeCST,TemperatureF,Dew PointF,Humidity,Sea Level PressureIn,VisibilityMPH,Wind Direction,Wind SpeedMPH,Gust SpeedMPH,PrecipitationIn,Events,Conditions,WindDirDegrees,DateUTC
12:03 AM,48.2,44.6,87,30.33,0.5,Calm,Calm,-,N/A,Fog,Fog,0,2013-01-24 06:03:00
12:39 AM,48.2,44.6,87,30.33,0.8,Calm,Calm,-,N/A,,Mist,0,2013-01-24 06:39:00
12:55 AM,46.9,43.0,86,30.32,1.0,Calm,Calm,-,N/A,,Mist,0,2013-01-24 06:55:00
1:38 AM,46.4,42.8,87,30.33,0.5,Calm,Calm,-,N/A,Fog,Fog,0,2013-01-24 07:38:00
1:50 AM,46.4,42.8,87,30.32,2.0,Calm,Calm,-,N/A,,Clear,0,2013-01-24 07:50:00
1:55 AM,46.9,43.0,86,30.32,8.0,Calm,Calm,-,N/A,,Clear,0,2013-01-24 07:55:00
2:32 AM,46.4,44.6,93,30.32,0.2,Calm,Calm,-,N/A,Fog,Fog,0,2013-01-24 08:32:00
2:55 AM,48.0,44.1,86,30.31,3.0,Calm,Calm,-,N/A,,Clear,0,2013-01-24 08:55:00
3:18 AM,48.2,44.6,87,30.30,1.5,Calm,Calm,-,N/A,,Clear,0,2013-01-24 09:18:00
3:55 AM,45.0,42.1,90,30.30,0.2,Calm,Calm,-,N/A,Fog,Fog,0,2013-01-24 09:55:00
4:07 AM,44.6,42.8,93,30.30,0.2,Calm,Calm,-,N/A,Fog,Fog,0,2013-01-24 10:07:00
4:55 AM,44.1,41.0,89,30.32,0.2,Calm,Calm,-,N/A,Fog,Fog,0,2013-01-24 10:55:00
5:11 AM,44.6,42.8,93,30.32,2.5,Calm,Calm,-,N/A,,Scattered Clouds,0,2013-01-24 11:11:00
5:48 AM,42.8,39.2,87,30.33,0.5,Calm,Calm,-,N/A,Fog,Fog,0,2013-01-24 11:48:00
5:55 AM,44.1,39.9,85,30.32,0.8,Calm,Calm,-,N/A,,Mist,0,2013-01-24 11:55:00
6:10 AM,44.6,39.2,81,30.33,3.0,Calm,Calm,-,N/A,,Mostly Cloudy,0,2013-01-24 12:10:00
6:49 AM,44.6,41.0,87,30.33,0.8,Calm,Calm,-,N/A,,Overcast,0,2013-01-24 12:49:00
6:55 AM,44.1,41.0,89,30.35,0.8,Calm,Calm,-,N/A,,Overcast,0,2013-01-24 12:55:00
7:55 AM,48.9,46.0,90,30.35,1.0,Calm,Calm,-,N/A,,Mostly Cloudy,0,2013-01-24 13:55:00
7:59 AM,48.2,46.4,93,30.35,2.0,Calm,Calm,-,N/A,,Mostly Cloudy,0,2013-01-24 13:59:00
8:55 AM,59.0,54.0,83,30.36,3.0,Calm,Calm,-,N/A,,Mostly Cloudy,0,2013-01-24 14:55:00
9:55 AM,66.0,55.0,68,30.37,8.0,SW,6.9,-,N/A,,Scattered Clouds,230,2013-01-24 15:55:00
10:55 AM,70.0,52.0,53,30.36,10.0,WSW,10.4,-,N/A,,Mostly Cloudy,240,2013-01-24 16:55:00
11:55 AM,71.1,52.0,51,30.33,10.0,WSW,5.8,-,N/A,,Mostly Cloudy,250,2013-01-24 17:55:00
12:55 PM,71.1,52.0,51,30.30,10.0,Variable,5.8,-,N/A,,Mostly Cloudy,0,2013-01-24 18:55:00
1:55 PM,73.0,53.1,49,30.27,10.0,SW,6.9,-,N/A,,Mostly Cloudy,220,2013-01-24 19:55:00
2:55 PM,71.1,53.1,53,30.26,10.0,South,9.2,-,N/A,,Mostly Cloudy,190,2013-01-24 20:55:00
3:55 PM,72.3,53.8,52,30.25,10.0,South,16.1,-,N/A,,Scattered Clouds,190,2013-01-24 21:55:00
4:55 PM,68.5,51.8,55,30.26,10.0,SW,10.4,-,N/A,,Mostly Cloudy,220,2013-01-24 22:55:00
5:55 PM,61.0,52.0,72,30.27,10.0,SSW,6.9,-,N/A,,Scattered Clouds,210,2013-01-24 23:55:00
6:55 PM,60.1,52.0,75,30.28,10.0,SW,4.6,-,N/A,,Scattered Clouds,220,2013-01-25 00:55:00
8:55 PM,57.0,51.1,81,30.29,10.0,SSW,3.5,-,N/A,,Scattered Clouds,210,2013-01-25 02:55:00
9:55 PM,55.0,51.1,86,30.29,10.0,SSW,4.6,-,N/A,,Scattered Clouds,200,2013-01-25 03:55:00
10:55 PM,57.9,53.1,84,30.28,7.0,SSW,3.5,-,N/A,,Clear,200,2013-01-25 04:55:00
11:55 PM,55.0,51.1,86,30.27,7.0,SSW,4.6,-,N/A,,Clear,210,2013-01-25 05:55:00